sensor_id;sensor_type;location;lat;lon;timestamp;P1;durP1;ratioP1;P2;durP2;ratioP2
68800;SDS011;55784;50.734;7.086;2023-04-07T00:00:47;12.43;;;5.40;;
68800;SDS011;55784;50.734;7.086;2023-04-07T00:03:12;13.03;;;5.57;;
68800;SDS011;55784;50.734;7.086;2023-04-07T00:05:38;13.43;;;5.97;;
68800;SDS011;55784;50.734;7.086;2023-04-07T00:08:03;15.70;;;6.27;;
68800;SDS011;55784;50.734;7.086;2023-04-07T00:10:28;14.63;;;6.30;;
68800;SDS011;55784;50.734;7.086;2023-04-07T00:12:54;13.40;;;5.72;;
68800;SDS011;55784;50.734;7.086;2023-04-07T00:15:19;13.97;;;5.83;;
68800;SDS011;55784;50.734;7.086;2023-04-07T00:17:45;13.50;;;6.13;;
68800;SDS011;55784;50.734;7.086;2023-04-07T00:20:10;13.87;;;6.10;;
68800;SDS011;55784;50.734;7.086;2023-04-07T00:22:36;14.25;;;5.93;;
68800;SDS011;55784;50.734;7.086;2023-04-07T00:25:01;15.07;;;6.50;;
68800;SDS011;55784;50.734;7.086;2023-04-07T00:27:27;14.20;;;6.13;;
68800;SDS011;55784;50.734;7.086;2023-04-07T00:29:52;14.17;;;6.20;;
68800;SDS011;55784;50.734;7.086;2023-04-07T00:32:19;12.77;;;6.00;;
68800;SDS011;55784;50.734;7.086;2023-04-07T00:34:45;13.13;;;5.55;;
68800;SDS011;55784;50.734;7.086;2023-04-07T00:37:10;13.03;;;5.60;;
68800;SDS011;55784;50.734;7.086;2023-04-07T00:39:35;13.30;;;5.97;;
68800;SDS011;55784;50.734;7.086;2023-04-07T00:42:02;13.17;;;5.63;;
68800;SDS011;55784;50.734;7.086;2023-04-07T00:44:29;11.93;;;5.25;;
68800;SDS011;55784;50.734;7.086;2023-04-07T00:46:55;13.60;;;5.27;;
68800;SDS011;55784;50.734;7.086;2023-04-07T00:49:20;13.48;;;5.85;;
68800;SDS011;55784;50.734;7.086;2023-04-07T00:51:45;13.73;;;6.00;;
68800;SDS011;55784;50.734;7.086;2023-04-07T00:54:11;14.27;;;5.60;;
68800;SDS011;55784;50.734;7.086;2023-04-07T00:56:36;12.53;;;5.33;;
68800;SDS011;55784;50.734;7.086;2023-04-07T00:59:05;12.63;;;5.40;;
68800;SDS011;55784;50.734;7.086;2023-04-07T01:04:20;13.70;;;6.03;;
68800;SDS011;55784;50.734;7.086;2023-04-07T01:06:50;12.70;;;5.75;;
68800;SDS011;55784;50.734;7.086;2023-04-07T01:09:22;12.85;;;5.72;;
68800;SDS011;55784;50.734;7.086;2023-04-07T01:14:59;13.32;;;6.00;;
68800;SDS011;55784;50.734;7.086;2023-04-07T01:17:28;14.15;;;6.00;;
68800;SDS011;55784;50.734;7.086;2023-04-07T01:19:58;14.13;;;6.30;;
68800;SDS011;55784;50.734;7.086;2023-04-07T01:22:33;13.93;;;6.18;;
68800;SDS011;55784;50.734;7.086;2023-04-07T01:25:17;13.70;;;6.20;;
68800;SDS011;55784;50.734;7.086;2023-04-07T01:28:07;14.48;;;6.70;;
68800;SDS011;55784;50.734;7.086;2023-04-07T01:30:39;13.35;;;6.25;;
68800;SDS011;55784;50.734;7.086;2023-04-07T01:33:07;14.63;;;6.28;;
68800;SDS011;55784;50.734;7.086;2023-04-07T01:35:35;13.45;;;5.15;;
68800;SDS011;55784;50.734;7.086;2023-04-07T01:38:02;12.47;;;5.63;;
68800;SDS011;55784;50.734;7.086;2023-04-07T01:43:49;14.10;;;5.50;;
68800;SDS011;55784;50.734;7.086;2023-04-07T01:46:16;12.15;;;5.10;;
68800;SDS011;55784;50.734;7.086;2023-04-07T01:48:41;12.17;;;4.93;;
68800;SDS011;55784;50.734;7.086;2023-04-07T01:51:07;13.37;;;5.40;;
68800;SDS011;55784;50.734;7.086;2023-04-07T01:53:35;14.30;;;5.40;;
68800;SDS011;55784;50.734;7.086;2023-04-07T01:56:02;13.38;;;5.30;;
68800;SDS011;55784;50.734;7.086;2023-04-07T01:58:28;11.52;;;4.85;;
68800;SDS011;55784;50.734;7.086;2023-04-07T02:00:53;11.87;;;5.00;;
68800;SDS011;55784;50.734;7.086;2023-04-07T02:03:19;12.30;;;5.07;;
68800;SDS011;55784;50.734;7.086;2023-04-07T02:05:48;12.07;;;5.15;;
68800;SDS011;55784;50.734;7.086;2023-04-07T02:08:16;14.15;;;5.60;;
68800;SDS011;55784;50.734;7.086;2023-04-07T02:10:45;13.37;;;5.43;;
68800;SDS011;55784;50.734;7.086;2023-04-07T02:13:12;12.40;;;5.15;;
68800;SDS011;55784;50.734;7.086;2023-04-07T02:15:40;14.80;;;5.57;;
68800;SDS011;55784;50.734;7.086;2023-04-07T02:18:08;14.30;;;5.70;;
68800;SDS011;55784;50.734;7.086;2023-04-07T02:20:34;17.63;;;6.80;;
68800;SDS011;55784;50.734;7.086;2023-04-07T02:23:01;16.00;;;6.53;;
68800;SDS011;55784;50.734;7.086;2023-04-07T02:25:30;18.00;;;7.63;;
68800;SDS011;55784;50.734;7.086;2023-04-07T02:27:56;19.45;;;8.00;;
68800;SDS011;55784;50.734;7.086;2023-04-07T02:30:23;19.80;;;7.72;;
68800;SDS011;55784;50.734;7.086;2023-04-07T02:32:49;20.80;;;8.57;;
68800;SDS011;55784;50.734;7.086;2023-04-07T02:35:15;23.63;;;8.77;;
68800;SDS011;55784;50.734;7.086;2023-04-07T02:37:41;21.58;;;9.15;;
68800;SDS011;55784;50.734;7.086;2023-04-07T02:40:08;22.15;;;8.98;;
68800;SDS011;55784;50.734;7.086;2023-04-07T02:42:33;23.45;;;8.80;;
68800;SDS011;55784;50.734;7.086;2023-04-07T02:45:00;23.25;;;8.95;;
68800;SDS011;55784;50.734;7.086;2023-04-07T02:47:26;24.77;;;9.05;;
68800;SDS011;55784;50.734;7.086;2023-04-07T02:49:51;25.33;;;9.40;;
68800;SDS011;55784;50.734;7.086;2023-04-07T02:52:17;23.97;;;9.87;;
68800;SDS011;55784;50.734;7.086;2023-04-07T02:54:42;23.33;;;9.53;;
68800;SDS011;55784;50.734;7.086;2023-04-07T02:57:07;26.13;;;9.68;;
68800;SDS011;55784;50.734;7.086;2023-04-07T02:59:33;27.40;;;9.57;;
68800;SDS011;55784;50.734;7.086;2023-04-07T03:01:58;28.27;;;10.20;;
68800;SDS011;55784;50.734;7.086;2023-04-07T03:04:23;26.53;;;9.67;;
68800;SDS011;55784;50.734;7.086;2023-04-07T03:06:49;26.57;;;10.17;;
68800;SDS011;55784;50.734;7.086;2023-04-07T03:09:14;28.20;;;10.07;;
68800;SDS011;55784;50.734;7.086;2023-04-07T03:11:40;29.23;;;10.30;;
68800;SDS011;55784;50.734;7.086;2023-04-07T03:14:08;32.80;;;10.35;;
68800;SDS011;55784;50.734;7.086;2023-04-07T03:16:33;28.17;;;10.47;;
68800;SDS011;55784;50.734;7.086;2023-04-07T03:18:58;28.80;;;10.47;;
68800;SDS011;55784;50.734;7.086;2023-04-07T03:21:24;30.08;;;10.80;;
68800;SDS011;55784;50.734;7.086;2023-04-07T03:23:49;28.10;;;10.40;;
68800;SDS011;55784;50.734;7.086;2023-04-07T03:26:15;32.40;;;11.50;;
68800;SDS011;55784;50.734;7.086;2023-04-07T03:28:40;36.13;;;11.77;;
68800;SDS011;55784;50.734;7.086;2023-04-07T03:31:05;33.67;;;11.43;;
68800;SDS011;55784;50.734;7.086;2023-04-07T03:33:31;33.83;;;11.30;;
68800;SDS011;55784;50.734;7.086;2023-04-07T03:35:56;34.92;;;11.23;;
68800;SDS011;55784;50.734;7.086;2023-04-07T03:38:21;33.20;;;11.40;;
68800;SDS011;55784;50.734;7.086;2023-04-07T03:40:47;33.73;;;10.87;;
68800;SDS011;55784;50.734;7.086;2023-04-07T03:43:12;31.13;;;10.67;;
68800;SDS011;55784;50.734;7.086;2023-04-07T03:45:39;32.10;;;10.88;;
68800;SDS011;55784;50.734;7.086;2023-04-07T03:48:05;36.13;;;11.37;;
68800;SDS011;55784;50.734;7.086;2023-04-07T03:50:34;31.30;;;11.15;;
68800;SDS011;55784;50.734;7.086;2023-04-07T03:53:00;35.28;;;11.15;;
68800;SDS011;55784;50.734;7.086;2023-04-07T03:55:25;33.95;;;11.80;;
68800;SDS011;55784;50.734;7.086;2023-04-07T03:57:50;34.33;;;11.90;;
68800;SDS011;55784;50.734;7.086;2023-04-07T04:00:16;34.60;;;12.10;;
68800;SDS011;55784;50.734;7.086;2023-04-07T04:02:41;31.43;;;11.13;;
68800;SDS011;55784;50.734;7.086;2023-04-07T04:05:06;37.07;;;12.53;;
68800;SDS011;55784;50.734;7.086;2023-04-07T04:07:32;37.57;;;12.20;;
68800;SDS011;55784;50.734;7.086;2023-04-07T04:09:58;34.60;;;12.10;;
68800;SDS011;55784;50.734;7.086;2023-04-07T04:12:23;39.33;;;12.70;;
68800;SDS011;55784;50.734;7.086;2023-04-07T04:14:48;37.83;;;12.97;;
68800;SDS011;55784;50.734;7.086;2023-04-07T04:17:14;43.28;;;13.23;;
68800;SDS011;55784;50.734;7.086;2023-04-07T04:19:39;37.58;;;13.00;;
68800;SDS011;55784;50.734;7.086;2023-04-07T04:22:05;34.10;;;12.07;;
68800;SDS011;55784;50.734;7.086;2023-04-07T04:24:30;39.27;;;13.27;;
68800;SDS011;55784;50.734;7.086;2023-04-07T04:26:55;37.43;;;12.60;;
68800;SDS011;55784;50.734;7.086;2023-04-07T04:29:21;39.23;;;13.20;;
68800;SDS011;55784;50.734;7.086;2023-04-07T04:31:46;40.10;;;12.60;;
68800;SDS011;55784;50.734;7.086;2023-04-07T04:34:11;42.40;;;13.10;;
68800;SDS011;55784;50.734;7.086;2023-04-07T04:36:37;40.13;;;13.23;;
68800;SDS011;55784;50.734;7.086;2023-04-07T04:39:04;41.70;;;14.83;;
68800;SDS011;55784;50.734;7.086;2023-04-07T04:41:29;39.60;;;13.27;;
68800;SDS011;55784;50.734;7.086;2023-04-07T04:43:55;41.40;;;13.17;;
68800;SDS011;55784;50.734;7.086;2023-04-07T04:46:20;39.83;;;13.20;;
68800;SDS011;55784;50.734;7.086;2023-04-07T04:48:46;40.70;;;13.17;;
68800;SDS011;55784;50.734;7.086;2023-04-07T04:51:11;40.60;;;14.47;;
68800;SDS011;55784;50.734;7.086;2023-04-07T04:53:36;42.13;;;13.60;;
68800;SDS011;55784;50.734;7.086;2023-04-07T04:56:01;40.17;;;13.50;;
68800;SDS011;55784;50.734;7.086;2023-04-07T04:58:27;37.92;;;13.10;;
68800;SDS011;55784;50.734;7.086;2023-04-07T05:00:53;36.53;;;12.95;;
68800;SDS011;55784;50.734;7.086;2023-04-07T05:03:22;38.97;;;13.30;;
68800;SDS011;55784;50.734;7.086;2023-04-07T05:05:48;38.55;;;13.00;;
68800;SDS011;55784;50.734;7.086;2023-04-07T05:08:14;40.45;;;12.88;;
68800;SDS011;55784;50.734;7.086;2023-04-07T05:10:39;39.42;;;13.68;;
68800;SDS011;55784;50.734;7.086;2023-04-07T05:13:05;38.70;;;13.80;;
68800;SDS011;55784;50.734;7.086;2023-04-07T05:15:30;39.57;;;13.87;;
68800;SDS011;55784;50.734;7.086;2023-04-07T05:17:55;39.70;;;12.97;;
68800;SDS011;55784;50.734;7.086;2023-04-07T05:20:21;39.17;;;13.87;;
68800;SDS011;55784;50.734;7.086;2023-04-07T05:22:46;38.40;;;13.70;;
68800;SDS011;55784;50.734;7.086;2023-04-07T05:25:11;37.13;;;13.13;;
68800;SDS011;55784;50.734;7.086;2023-04-07T05:27:37;39.15;;;12.90;;
68800;SDS011;55784;50.734;7.086;2023-04-07T05:30:02;38.43;;;13.20;;
68800;SDS011;55784;50.734;7.086;2023-04-07T05:32:28;38.47;;;12.43;;
68800;SDS011;55784;50.734;7.086;2023-04-07T05:34:53;35.33;;;12.37;;
68800;SDS011;55784;50.734;7.086;2023-04-07T05:37:19;36.25;;;12.75;;
68800;SDS011;55784;50.734;7.086;2023-04-07T05:39:45;33.05;;;12.00;;
68800;SDS011;55784;50.734;7.086;2023-04-07T05:42:10;35.07;;;11.87;;
68800;SDS011;55784;50.734;7.086;2023-04-07T05:44:35;33.50;;;11.70;;
68800;SDS011;55784;50.734;7.086;2023-04-07T05:47:01;33.70;;;12.43;;
68800;SDS011;55784;50.734;7.086;2023-04-07T05:49:29;32.95;;;11.98;;
68800;SDS011;55784;50.734;7.086;2023-04-07T05:51:55;33.97;;;11.50;;
68800;SDS011;55784;50.734;7.086;2023-04-07T05:54:20;35.30;;;12.57;;
68800;SDS011;55784;50.734;7.086;2023-04-07T05:56:45;35.23;;;12.10;;
68800;SDS011;55784;50.734;7.086;2023-04-07T05:59:11;32.30;;;11.03;;
68800;SDS011;55784;50.734;7.086;2023-04-07T06:01:36;33.22;;;11.60;;
68800;SDS011;55784;50.734;7.086;2023-04-07T06:04:01;36.30;;;13.43;;
68800;SDS011;55784;50.734;7.086;2023-04-07T06:06:28;32.80;;;12.18;;
68800;SDS011;55784;50.734;7.086;2023-04-07T06:08:53;30.95;;;12.10;;
68800;SDS011;55784;50.734;7.086;2023-04-07T06:11:18;33.70;;;11.97;;
68800;SDS011;55784;50.734;7.086;2023-04-07T06:13:44;31.93;;;11.17;;
68800;SDS011;55784;50.734;7.086;2023-04-07T06:16:10;31.02;;;10.30;;
68800;SDS011;55784;50.734;7.086;2023-04-07T06:18:35;30.87;;;11.17;;
68800;SDS011;55784;50.734;7.086;2023-04-07T06:21:01;32.00;;;11.67;;
68800;SDS011;55784;50.734;7.086;2023-04-07T06:23:26;29.40;;;10.47;;
68800;SDS011;55784;50.734;7.086;2023-04-07T06:25:51;30.73;;;10.33;;
68800;SDS011;55784;50.734;7.086;2023-04-07T06:28:17;31.35;;;10.75;;
68800;SDS011;55784;50.734;7.086;2023-04-07T06:30:42;33.27;;;10.57;;
68800;SDS011;55784;50.734;7.086;2023-04-07T06:33:08;32.00;;;11.40;;
68800;SDS011;55784;50.734;7.086;2023-04-07T06:35:33;27.47;;;10.13;;
68800;SDS011;55784;50.734;7.086;2023-04-07T06:37:58;25.90;;;9.50;;
68800;SDS011;55784;50.734;7.086;2023-04-07T06:40:24;28.17;;;9.52;;
68800;SDS011;55784;50.734;7.086;2023-04-07T06:42:49;28.63;;;9.77;;
68800;SDS011;55784;50.734;7.086;2023-04-07T06:45:15;28.40;;;9.50;;
68800;SDS011;55784;50.734;7.086;2023-04-07T06:47:41;29.30;;;10.80;;
68800;SDS011;55784;50.734;7.086;2023-04-07T06:50:06;28.47;;;10.37;;
68800;SDS011;55784;50.734;7.086;2023-04-07T06:52:32;31.17;;;10.67;;
68800;SDS011;55784;50.734;7.086;2023-04-07T06:54:57;27.37;;;9.97;;
68800;SDS011;55784;50.734;7.086;2023-04-07T06:57:23;29.85;;;10.15;;
68800;SDS011;55784;50.734;7.086;2023-04-07T06:59:48;27.23;;;10.03;;
68800;SDS011;55784;50.734;7.086;2023-04-07T07:02:14;28.00;;;9.40;;
68800;SDS011;55784;50.734;7.086;2023-04-07T07:04:39;25.90;;;8.90;;
68800;SDS011;55784;50.734;7.086;2023-04-07T07:07:04;26.75;;;8.30;;
68800;SDS011;55784;50.734;7.086;2023-04-07T07:09:30;25.90;;;8.97;;
68800;SDS011;55784;50.734;7.086;2023-04-07T07:11:55;27.53;;;10.03;;
68800;SDS011;55784;50.734;7.086;2023-04-07T07:14:21;25.65;;;8.45;;
68800;SDS011;55784;50.734;7.086;2023-04-07T07:16:46;24.73;;;8.07;;
68800;SDS011;55784;50.734;7.086;2023-04-07T07:19:12;23.07;;;7.07;;
68800;SDS011;55784;50.734;7.086;2023-04-07T07:21:38;22.85;;;8.15;;
68800;SDS011;55784;50.734;7.086;2023-04-07T07:24:03;26.27;;;9.03;;
68800;SDS011;55784;50.734;7.086;2023-04-07T07:26:29;26.97;;;9.27;;
68800;SDS011;55784;50.734;7.086;2023-04-07T07:28:54;25.70;;;9.30;;
68800;SDS011;55784;50.734;7.086;2023-04-07T07:31:20;25.83;;;7.70;;
68800;SDS011;55784;50.734;7.086;2023-04-07T07:33:45;21.35;;;8.38;;
68800;SDS011;55784;50.734;7.086;2023-04-07T07:36:12;26.20;;;8.68;;
68800;SDS011;55784;50.734;7.086;2023-04-07T07:38:38;24.15;;;7.80;;
68800;SDS011;55784;50.734;7.086;2023-04-07T07:41:05;22.97;;;7.07;;
68800;SDS011;55784;50.734;7.086;2023-04-07T07:43:31;23.38;;;8.88;;
68800;SDS011;55784;50.734;7.086;2023-04-07T07:45:56;25.53;;;9.37;;
68800;SDS011;55784;50.734;7.086;2023-04-07T07:48:22;22.53;;;7.57;;
68800;SDS011;55784;50.734;7.086;2023-04-07T07:50:47;18.13;;;7.38;;
68800;SDS011;55784;50.734;7.086;2023-04-07T07:53:13;20.73;;;7.40;;
68800;SDS011;55784;50.734;7.086;2023-04-07T07:55:38;18.85;;;6.50;;
68800;SDS011;55784;50.734;7.086;2023-04-07T07:58:03;16.98;;;6.10;;
68800;SDS011;55784;50.734;7.086;2023-04-07T08:00:29;18.40;;;5.90;;
68800;SDS011;55784;50.734;7.086;2023-04-07T08:02:55;16.87;;;5.40;;
68800;SDS011;55784;50.734;7.086;2023-04-07T08:05:20;18.20;;;5.57;;
68800;SDS011;55784;50.734;7.086;2023-04-07T08:07:46;15.48;;;4.97;;
68800;SDS011;55784;50.734;7.086;2023-04-07T08:10:11;14.90;;;5.20;;
68800;SDS011;55784;50.734;7.086;2023-04-07T08:12:37;15.70;;;4.90;;
68800;SDS011;55784;50.734;7.086;2023-04-07T08:15:03;13.10;;;4.07;;
68800;SDS011;55784;50.734;7.086;2023-04-07T08:17:29;13.18;;;4.03;;
68800;SDS011;55784;50.734;7.086;2023-04-07T08:19:55;14.30;;;4.90;;
68800;SDS011;55784;50.734;7.086;2023-04-07T08:22:21;14.17;;;4.67;;
68800;SDS011;55784;50.734;7.086;2023-04-07T08:24:46;16.00;;;4.77;;
68800;SDS011;55784;50.734;7.086;2023-04-07T08:27:12;12.83;;;4.60;;
68800;SDS011;55784;50.734;7.086;2023-04-07T08:29:37;13.18;;;3.95;;
68800;SDS011;55784;50.734;7.086;2023-04-07T08:32:03;12.57;;;4.03;;
68800;SDS011;55784;50.734;7.086;2023-04-07T08:34:28;13.40;;;3.80;;
68800;SDS011;55784;50.734;7.086;2023-04-07T08:36:53;11.63;;;3.70;;
68800;SDS011;55784;50.734;7.086;2023-04-07T08:39:19;12.70;;;4.27;;
68800;SDS011;55784;50.734;7.086;2023-04-07T08:41:44;10.93;;;3.23;;
68800;SDS011;55784;50.734;7.086;2023-04-07T08:44:12;17.45;;;4.55;;
68800;SDS011;55784;50.734;7.086;2023-04-07T08:46:40;11.82;;;3.58;;
68800;SDS011;55784;50.734;7.086;2023-04-07T08:49:09;14.30;;;4.30;;
68800;SDS011;55784;50.734;7.086;2023-04-07T08:51:37;9.80;;;3.20;;
68800;SDS011;55784;50.734;7.086;2023-04-07T08:54:09;9.73;;;2.90;;
68800;SDS011;55784;50.734;7.086;2023-04-07T08:56:36;10.15;;;3.20;;
68800;SDS011;55784;50.734;7.086;2023-04-07T08:59:05;10.65;;;2.85;;
68800;SDS011;55784;50.734;7.086;2023-04-07T09:01:31;15.15;;;5.72;;
68800;SDS011;55784;50.734;7.086;2023-04-07T09:03:59;12.65;;;3.75;;
68800;SDS011;55784;50.734;7.086;2023-04-07T09:06:28;10.57;;;2.47;;
68800;SDS011;55784;50.734;7.086;2023-04-07T09:08:55;9.40;;;2.60;;
68800;SDS011;55784;50.734;7.086;2023-04-07T09:11:28;8.30;;;2.33;;
68800;SDS011;55784;50.734;7.086;2023-04-07T09:13:54;9.50;;;2.40;;
68800;SDS011;55784;50.734;7.086;2023-04-07T09:16:21;8.20;;;2.55;;
68800;SDS011;55784;50.734;7.086;2023-04-07T09:18:47;9.10;;;2.30;;
68800;SDS011;55784;50.734;7.086;2023-04-07T09:21:13;9.82;;;2.67;;
68800;SDS011;55784;50.734;7.086;2023-04-07T09:23:39;10.93;;;3.10;;
68800;SDS011;55784;50.734;7.086;2023-04-07T09:26:24;9.20;;;2.60;;
68800;SDS011;55784;50.734;7.086;2023-04-07T09:31:19;10.27;;;3.03;;
68800;SDS011;55784;50.734;7.086;2023-04-07T09:33:46;9.70;;;2.90;;
68800;SDS011;55784;50.734;7.086;2023-04-07T09:36:12;10.32;;;3.15;;
68800;SDS011;55784;50.734;7.086;2023-04-07T09:38:38;9.57;;;3.03;;
68800;SDS011;55784;50.734;7.086;2023-04-07T09:41:06;10.00;;;2.80;;
68800;SDS011;55784;50.734;7.086;2023-04-07T09:43:34;9.32;;;2.90;;
68800;SDS011;55784;50.734;7.086;2023-04-07T09:46:12;13.10;;;3.20;;
68800;SDS011;55784;50.734;7.086;2023-04-07T09:48:44;9.82;;;2.90;;
68800;SDS011;55784;50.734;7.086;2023-04-07T09:53:46;10.53;;;3.00;;
68800;SDS011;55784;50.734;7.086;2023-04-07T09:56:13;10.50;;;3.13;;
68800;SDS011;55784;50.734;7.086;2023-04-07T09:58:40;10.48;;;2.70;;
68800;SDS011;55784;50.734;7.086;2023-04-07T10:01:08;9.27;;;2.88;;
68800;SDS011;55784;50.734;7.086;2023-04-07T10:03:34;10.87;;;2.93;;
68800;SDS011;55784;50.734;7.086;2023-04-07T10:06:01;9.48;;;2.78;;
68800;SDS011;55784;50.734;7.086;2023-04-07T10:08:26;10.43;;;2.90;;
68800;SDS011;55784;50.734;7.086;2023-04-07T10:10:53;11.45;;;3.20;;
68800;SDS011;55784;50.734;7.086;2023-04-07T10:13:20;10.07;;;3.22;;
68800;SDS011;55784;50.734;7.086;2023-04-07T10:15:46;10.30;;;3.28;;
68800;SDS011;55784;50.734;7.086;2023-04-07T10:18:13;10.63;;;3.33;;
68800;SDS011;55784;50.734;7.086;2023-04-07T10:20:39;11.40;;;3.35;;
68800;SDS011;55784;50.734;7.086;2023-04-07T10:23:12;12.43;;;3.67;;
68800;SDS011;55784;50.734;7.086;2023-04-07T10:25:43;10.32;;;3.67;;
68800;SDS011;55784;50.734;7.086;2023-04-07T10:28:10;10.63;;;3.70;;
68800;SDS011;55784;50.734;7.086;2023-04-07T10:30:38;10.75;;;3.25;;
68800;SDS011;55784;50.734;7.086;2023-04-07T10:33:04;11.85;;;3.55;;
68800;SDS011;55784;50.734;7.086;2023-04-07T10:38:30;12.13;;;4.22;;
68800;SDS011;55784;50.734;7.086;2023-04-07T10:40:57;12.85;;;4.13;;
68800;SDS011;55784;50.734;7.086;2023-04-07T10:43:36;10.70;;;3.87;;
68800;SDS011;55784;50.734;7.086;2023-04-07T10:46:03;10.10;;;3.47;;
68800;SDS011;55784;50.734;7.086;2023-04-07T10:48:29;11.93;;;3.23;;
68800;SDS011;55784;50.734;7.086;2023-04-07T10:53:38;10.70;;;3.60;;
68800;SDS011;55784;50.734;7.086;2023-04-07T10:59:29;10.50;;;3.22;;
68800;SDS011;55784;50.734;7.086;2023-04-07T11:04:39;11.13;;;3.45;;
68800;SDS011;55784;50.734;7.086;2023-04-07T11:07:08;10.40;;;3.80;;
68800;SDS011;55784;50.734;7.086;2023-04-07T11:09:34;11.40;;;3.80;;
68800;SDS011;55784;50.734;7.086;2023-04-07T11:12:00;14.05;;;4.30;;
68800;SDS011;55784;50.734;7.086;2023-04-07T11:14:26;13.10;;;3.67;;
68800;SDS011;55784;50.734;7.086;2023-04-07T11:16:58;13.88;;;5.00;;
68800;SDS011;55784;50.734;7.086;2023-04-07T11:19:25;14.52;;;4.30;;
68800;SDS011;55784;50.734;7.086;2023-04-07T11:21:51;14.93;;;4.57;;
68800;SDS011;55784;50.734;7.086;2023-04-07T11:24:40;14.15;;;4.53;;
68800;SDS011;55784;50.734;7.086;2023-04-07T11:27:09;15.10;;;5.60;;
68800;SDS011;55784;50.734;7.086;2023-04-07T11:29:36;16.88;;;5.50;;
68800;SDS011;55784;50.734;7.086;2023-04-07T11:32:02;15.27;;;4.63;;
68800;SDS011;55784;50.734;7.086;2023-04-07T11:34:29;22.20;;;8.15;;
68800;SDS011;55784;50.734;7.086;2023-04-07T11:36:59;13.80;;;5.07;;
68800;SDS011;55784;50.734;7.086;2023-04-07T11:39:50;15.88;;;5.50;;
68800;SDS011;55784;50.734;7.086;2023-04-07T11:42:30;16.38;;;5.82;;
68800;SDS011;55784;50.734;7.086;2023-04-07T11:44:58;14.68;;;4.90;;
68800;SDS011;55784;50.734;7.086;2023-04-07T11:47:37;14.73;;;4.97;;
68800;SDS011;55784;50.734;7.086;2023-04-07T11:50:03;12.50;;;4.40;;
68800;SDS011;55784;50.734;7.086;2023-04-07T11:52:39;14.73;;;4.53;;
68800;SDS011;55784;50.734;7.086;2023-04-07T11:55:06;17.70;;;7.27;;
68800;SDS011;55784;50.734;7.086;2023-04-07T11:57:41;15.00;;;4.95;;
68800;SDS011;55784;50.734;7.086;2023-04-07T12:00:07;14.93;;;5.03;;
68800;SDS011;55784;50.734;7.086;2023-04-07T12:02:33;18.55;;;6.45;;
68800;SDS011;55784;50.734;7.086;2023-04-07T12:04:59;20.20;;;8.32;;
68800;SDS011;55784;50.734;7.086;2023-04-07T12:07:25;19.03;;;7.07;;
68800;SDS011;55784;50.734;7.086;2023-04-07T12:09:51;19.23;;;8.02;;
68800;SDS011;55784;50.734;7.086;2023-04-07T12:12:25;19.77;;;7.32;;
68800;SDS011;55784;50.734;7.086;2023-04-07T12:14:52;17.45;;;6.45;;
68800;SDS011;55784;50.734;7.086;2023-04-07T12:17:22;19.92;;;7.88;;
68800;SDS011;55784;50.734;7.086;2023-04-07T12:19:48;16.90;;;6.28;;
68800;SDS011;55784;50.734;7.086;2023-04-07T12:22:15;20.95;;;7.13;;
68800;SDS011;55784;50.734;7.086;2023-04-07T12:24:40;19.00;;;6.65;;
68800;SDS011;55784;50.734;7.086;2023-04-07T12:27:10;22.35;;;7.72;;
68800;SDS011;55784;50.734;7.086;2023-04-07T12:29:35;17.77;;;6.50;;
68800;SDS011;55784;50.734;7.086;2023-04-07T12:32:02;17.23;;;6.82;;
68800;SDS011;55784;50.734;7.086;2023-04-07T12:34:31;18.85;;;6.45;;
68800;SDS011;55784;50.734;7.086;2023-04-07T12:36:58;19.60;;;6.90;;
68800;SDS011;55784;50.734;7.086;2023-04-07T12:39:23;17.95;;;6.40;;
68800;SDS011;55784;50.734;7.086;2023-04-07T12:41:49;16.85;;;5.80;;
68800;SDS011;55784;50.734;7.086;2023-04-07T12:44:17;17.02;;;6.30;;
68800;SDS011;55784;50.734;7.086;2023-04-07T12:46:42;16.35;;;6.18;;
68800;SDS011;55784;50.734;7.086;2023-04-07T12:49:07;17.93;;;6.83;;
68800;SDS011;55784;50.734;7.086;2023-04-07T12:51:33;17.00;;;6.23;;
68800;SDS011;55784;50.734;7.086;2023-04-07T12:53:59;17.80;;;6.95;;
68800;SDS011;55784;50.734;7.086;2023-04-07T12:56:28;16.57;;;5.50;;
68800;SDS011;55784;50.734;7.086;2023-04-07T12:58:53;16.75;;;5.65;;
68800;SDS011;55784;50.734;7.086;2023-04-07T13:01:19;14.90;;;5.60;;
68800;SDS011;55784;50.734;7.086;2023-04-07T13:03:47;16.17;;;5.87;;
68800;SDS011;55784;50.734;7.086;2023-04-07T13:06:18;16.77;;;6.10;;
68800;SDS011;55784;50.734;7.086;2023-04-07T13:08:43;15.98;;;5.78;;
68800;SDS011;55784;50.734;7.086;2023-04-07T13:11:09;15.67;;;5.40;;
68800;SDS011;55784;50.734;7.086;2023-04-07T13:13:34;14.50;;;5.67;;
68800;SDS011;55784;50.734;7.086;2023-04-07T13:16:00;16.10;;;5.30;;
68800;SDS011;55784;50.734;7.086;2023-04-07T13:18:25;16.52;;;5.57;;
68800;SDS011;55784;50.734;7.086;2023-04-07T13:20:51;16.40;;;5.60;;
68800;SDS011;55784;50.734;7.086;2023-04-07T13:23:16;16.17;;;5.70;;
68800;SDS011;55784;50.734;7.086;2023-04-07T13:25:41;16.83;;;5.83;;
68800;SDS011;55784;50.734;7.086;2023-04-07T13:28:07;16.60;;;5.67;;
68800;SDS011;55784;50.734;7.086;2023-04-07T13:30:32;17.50;;;6.00;;
68800;SDS011;55784;50.734;7.086;2023-04-07T13:32:58;18.33;;;6.33;;
68800;SDS011;55784;50.734;7.086;2023-04-07T13:35:23;16.20;;;6.17;;
68800;SDS011;55784;50.734;7.086;2023-04-07T13:37:48;19.98;;;6.85;;
68800;SDS011;55784;50.734;7.086;2023-04-07T13:40:14;15.68;;;5.50;;
68800;SDS011;55784;50.734;7.086;2023-04-07T13:42:39;14.73;;;5.27;;
68800;SDS011;55784;50.734;7.086;2023-04-07T13:45:05;15.40;;;5.90;;
68800;SDS011;55784;50.734;7.086;2023-04-07T13:47:31;16.48;;;6.40;;
68800;SDS011;55784;50.734;7.086;2023-04-07T13:49:59;16.25;;;5.60;;
68800;SDS011;55784;50.734;7.086;2023-04-07T13:52:25;15.27;;;5.53;;
68800;SDS011;55784;50.734;7.086;2023-04-07T13:54:51;14.93;;;5.38;;
68800;SDS011;55784;50.734;7.086;2023-04-07T13:57:16;14.80;;;5.93;;
68800;SDS011;55784;50.734;7.086;2023-04-07T13:59:44;14.77;;;6.13;;
68800;SDS011;55784;50.734;7.086;2023-04-07T14:02:13;17.88;;;6.55;;
68800;SDS011;55784;50.734;7.086;2023-04-07T14:04:38;15.80;;;5.87;;
68800;SDS011;55784;50.734;7.086;2023-04-07T14:07:04;18.40;;;6.60;;
68800;SDS011;55784;50.734;7.086;2023-04-07T14:09:29;18.87;;;6.70;;
68800;SDS011;55784;50.734;7.086;2023-04-07T14:11:55;18.67;;;7.40;;
68800;SDS011;55784;50.734;7.086;2023-04-07T14:14:21;20.05;;;8.93;;
68800;SDS011;55784;50.734;7.086;2023-04-07T14:16:47;19.48;;;7.47;;
68800;SDS011;55784;50.734;7.086;2023-04-07T14:19:15;19.65;;;7.60;;
68800;SDS011;55784;50.734;7.086;2023-04-07T14:21:41;17.42;;;6.63;;
68800;SDS011;55784;50.734;7.086;2023-04-07T14:24:06;18.37;;;6.60;;
68800;SDS011;55784;50.734;7.086;2023-04-07T14:26:32;18.47;;;6.40;;
68800;SDS011;55784;50.734;7.086;2023-04-07T14:28:57;14.73;;;5.83;;
68800;SDS011;55784;50.734;7.086;2023-04-07T14:31:22;15.27;;;5.80;;
68800;SDS011;55784;50.734;7.086;2023-04-07T14:33:48;18.55;;;6.47;;
68800;SDS011;55784;50.734;7.086;2023-04-07T14:36:14;15.27;;;5.90;;
68800;SDS011;55784;50.734;7.086;2023-04-07T14:38:40;14.35;;;6.70;;
68800;SDS011;55784;50.734;7.086;2023-04-07T14:41:06;16.50;;;6.33;;
68800;SDS011;55784;50.734;7.086;2023-04-07T14:43:31;15.95;;;6.40;;
68800;SDS011;55784;50.734;7.086;2023-04-07T14:45:57;15.83;;;5.70;;
68800;SDS011;55784;50.734;7.086;2023-04-07T14:48:23;13.95;;;5.82;;
68800;SDS011;55784;50.734;7.086;2023-04-07T14:50:49;15.67;;;5.87;;
68800;SDS011;55784;50.734;7.086;2023-04-07T14:53:14;14.97;;;6.17;;